createdAt,value
2018-09-11T00:00:20.400Z,95440.78
2018-09-11T00:02:49.166Z,95437.89
2018-09-11T00:05:19.723Z,95443.86
2018-09-11T00:07:48.513Z,95446.20
2018-09-11T00:10:17.382Z,95449.84
2018-09-11T00:12:46.778Z,95453.64
2018-09-11T00:15:15.698Z,95449.14
2018-09-11T00:17:44.577Z,95452.50
2018-09-11T00:20:13.368Z,95453.76
2018-09-11T00:22:42.232Z,95448.97
2018-09-11T00:25:11.118Z,95448.67
2018-09-11T00:27:39.992Z,95445.63
2018-09-11T00:30:08.836Z,95438.11
2018-09-11T00:32:37.931Z,95435.61
2018-09-11T00:35:06.734Z,95433.07
2018-09-11T00:37:35.552Z,95436.61
2018-09-11T00:40:04.498Z,95434.28
2018-09-11T00:42:33.368Z,95434.38
2018-09-11T00:45:02.252Z,95425.94
2018-09-11T00:47:31.016Z,95426.89
2018-09-11T00:49:59.874Z,95428.89
2018-09-11T00:52:28.647Z,95428.89
2018-09-11T00:54:57.561Z,95426.38
2018-09-11T00:57:26.534Z,95425.67
2018-09-11T00:59:55.285Z,95430.38
2018-09-11T01:02:24.174Z,95429.94
2018-09-11T01:04:53.019Z,95427.06
2018-09-11T01:07:21.950Z,95434.94
2018-09-11T01:09:50.705Z,95436.27
2018-09-11T01:12:19.496Z,95435.47
2018-09-11T01:14:48.279Z,95428.48
2018-09-11T01:17:17.046Z,95428.77
2018-09-11T01:19:45.917Z,95427.35
2018-09-11T01:22:14.731Z,95423.33
2018-09-11T01:24:43.593Z,95434.25
2018-09-11T01:27:12.366Z,95426.45
2018-09-11T01:29:41.178Z,95436.98
2018-09-11T01:32:10.039Z,95430.16
2018-09-11T01:34:38.810Z,95434.05
2018-09-11T01:37:08.141Z,95436.48
2018-09-11T01:39:36.946Z,95431.27
2018-09-11T01:42:05.828Z,95429.77
2018-09-11T01:44:34.615Z,95429.55
2018-09-11T01:47:03.459Z,95432.27
2018-09-11T01:49:32.463Z,95434.41
2018-09-11T01:52:01.251Z,95429.33
2018-09-11T01:54:30.087Z,95430.06
2018-09-11T01:56:58.849Z,95437.42
2018-09-11T01:59:27.657Z,95433.62
2018-09-11T02:01:56.415Z,95426.41
2018-09-11T02:04:25.205Z,95430.52
2018-09-11T02:06:54.005Z,95434.66
2018-09-11T02:09:22.752Z,95434.80
2018-09-11T02:11:51.515Z,95428.57
2018-09-11T02:14:20.335Z,95430.28
2018-09-11T02:16:49.173Z,95441.83
2018-09-11T02:19:17.974Z,95439.98
2018-09-11T02:21:46.807Z,95443.87
2018-09-11T02:24:15.589Z,95444.17
2018-09-11T02:26:44.401Z,95448.66
2018-09-11T02:29:13.569Z,95451.91
2018-09-11T02:31:42.363Z,95449.98
2018-09-11T02:34:11.158Z,95446.53
2018-09-11T02:36:39.941Z,95449.83
2018-09-11T02:39:10.643Z,95452.98
2018-09-11T02:41:39.460Z,95451.88
2018-09-11T02:44:09.279Z,95453.48
2018-09-11T02:46:38.085Z,95452.80
2018-09-11T02:49:07.295Z,95450.89
2018-09-11T02:51:36.131Z,95449.73
2018-09-11T02:54:05.010Z,95455.23
2018-09-11T02:56:33.807Z,95450.58
2018-09-11T02:59:02.587Z,95460.91
2018-09-11T03:01:31.404Z,95452.20
2018-09-11T03:04:00.209Z,95455.37
2018-09-11T03:06:29.048Z,95452.16
2018-09-11T03:08:57.882Z,95452.00
2018-09-11T03:11:26.791Z,95454.34
2018-09-11T03:13:55.645Z,95459.64
2018-09-11T03:16:24.411Z,95461.56
2018-09-11T03:18:53.266Z,95459.94
2018-09-11T03:21:22.204Z,95468.47
2018-09-11T03:23:51.019Z,95468.24
2018-09-11T03:26:19.811Z,95462.73
2018-09-11T03:28:48.680Z,95466.74
2018-09-11T03:31:17.879Z,95457.73
2018-09-11T03:33:46.821Z,95466.17
2018-09-11T03:36:15.676Z,95463.16
2018-09-11T03:38:44.643Z,95468.45
2018-09-11T03:41:13.446Z,95471.23
2018-09-11T03:43:42.296Z,95479.25
2018-09-11T03:46:12.071Z,95475.21
2018-09-11T03:48:40.921Z,95472.13
2018-09-11T03:51:09.718Z,95476.46
2018-09-11T03:53:38.556Z,95476.16
2018-09-11T03:56:07.407Z,95480.04
2018-09-11T03:58:36.244Z,95482.27
2018-09-11T04:01:05.452Z,95485.33
2018-09-11T04:03:34.282Z,95484.19
2018-09-11T04:06:03.041Z,95481.77
2018-09-11T04:08:31.856Z,95476.39
2018-09-11T04:11:00.641Z,95480.73
2018-09-11T04:13:29.480Z,95475.66
2018-09-11T04:15:58.289Z,95480.00
2018-09-11T04:18:27.192Z,95479.89
2018-09-11T04:20:56.005Z,95485.44
2018-09-11T04:23:24.758Z,95485.00
2018-09-11T04:25:53.575Z,95488.59
2018-09-11T04:28:22.401Z,95494.69
2018-09-11T04:30:51.287Z,95491.09
2018-09-11T04:33:20.084Z,95493.64
2018-09-11T04:35:48.834Z,95495.70
2018-09-11T04:38:17.650Z,95500.25
2018-09-11T04:40:46.451Z,95503.40
2018-09-11T04:43:15.268Z,95502.72
2018-09-11T04:45:44.204Z,95507.11
2018-09-11T04:48:13.210Z,95505.64
2018-09-11T04:50:42.023Z,95507.52
2018-09-11T04:53:10.877Z,95506.64
2018-09-11T04:55:40.029Z,95509.18
2018-09-11T04:58:09.303Z,95505.01
2018-09-11T05:00:38.324Z,95508.88
2018-09-11T05:03:07.135Z,95510.50
2018-09-11T05:05:35.975Z,95518.41
2018-09-11T05:08:04.802Z,95517.33
2018-09-11T05:10:33.591Z,95516.28
2018-09-11T05:13:02.456Z,95508.83
2018-09-11T05:15:31.372Z,95506.92
2018-09-11T05:18:00.306Z,95510.05
2018-09-11T05:20:29.558Z,95503.16
2018-09-11T05:22:58.330Z,95505.95
2018-09-11T05:25:27.179Z,95508.78
2018-09-11T05:27:56.098Z,95508.73
2018-09-11T05:30:24.942Z,95502.91
2018-09-11T05:32:53.856Z,95508.14
2018-09-11T05:35:22.747Z,95511.23
2018-09-11T05:37:51.639Z,95502.42
2018-09-11T05:40:20.500Z,95504.77
2018-09-11T05:42:49.384Z,95506.97
2018-09-11T05:45:18.176Z,95510.66
2018-09-11T05:47:46.967Z,95505.05
2018-09-11T05:50:15.845Z,95503.30
2018-09-11T05:52:44.651Z,95507.63
2018-09-11T05:55:13.437Z,95508.53
2018-09-11T05:57:42.371Z,95517.47
2018-09-11T06:00:11.299Z,95520.65
2018-09-11T06:02:40.238Z,95516.27
2018-09-11T06:05:09.234Z,95512.94
2018-09-11T06:07:38.079Z,95514.56
2018-09-11T06:10:06.986Z,95510.48
2018-09-11T06:12:35.809Z,95503.41
2018-09-11T06:15:05.030Z,95506.73
2018-09-11T06:17:33.916Z,95501.88
2018-09-11T06:20:02.754Z,95516.16
2018-09-11T06:22:31.625Z,95503.09
2018-09-11T06:25:00.486Z,95511.65
2018-09-11T06:27:29.253Z,95506.06
2018-09-11T06:29:58.202Z,95506.47
2018-09-11T06:32:26.986Z,95501.32
2018-09-11T06:34:55.797Z,95500.22
2018-09-11T06:37:24.638Z,95502.83
2018-09-11T06:39:53.564Z,95498.31
2018-09-11T06:42:22.344Z,95505.08
2018-09-11T06:44:51.201Z,95509.36
2018-09-11T06:47:20.195Z,95509.78
2018-09-11T06:49:49.310Z,95521.78
2018-09-11T06:52:18.099Z,95521.31
2018-09-11T06:54:46.958Z,95517.53
2018-09-11T06:57:15.960Z,95515.65
2018-09-11T06:59:44.742Z,95527.62
2018-09-11T07:02:13.581Z,95526.16
2018-09-11T07:04:42.428Z,95525.95
2018-09-11T07:07:11.190Z,95535.56
2018-09-11T07:09:40.006Z,95534.86
2018-09-11T07:12:08.741Z,95535.98
2018-09-11T07:14:37.565Z,95528.70
2018-09-11T07:17:06.591Z,95537.78
2018-09-11T07:19:35.574Z,95531.48
2018-09-11T07:22:04.607Z,95529.11
2018-09-11T07:24:33.626Z,95531.89
2018-09-11T07:27:02.449Z,95534.63
2018-09-11T07:29:31.271Z,95532.14
2018-09-11T07:32:00.137Z,95533.70
2018-09-11T07:34:29.039Z,95526.02
2018-09-11T07:36:57.863Z,95542.27
2018-09-11T07:39:26.622Z,95527.63
2018-09-11T07:41:55.561Z,95531.32
2018-09-11T07:44:24.446Z,95530.09
2018-09-11T07:46:53.661Z,95532.00
2018-09-11T07:49:22.547Z,95540.91
2018-09-11T07:51:51.389Z,95532.91
2018-09-11T07:54:20.270Z,95544.14
2018-09-11T07:56:49.128Z,95537.95
2018-09-11T07:59:17.968Z,95536.16
2018-09-11T08:01:46.764Z,95539.64
2018-09-11T08:04:15.685Z,95541.26
2018-09-11T08:06:44.517Z,95548.48
2018-09-11T08:09:14.039Z,95546.05
2018-09-11T08:11:42.797Z,95541.44
2018-09-11T08:14:11.585Z,95543.86
2018-09-11T08:16:40.286Z,95548.30
2018-09-11T08:19:09.399Z,95554.83
2018-09-11T08:21:38.214Z,95552.70
2018-09-11T08:24:07.488Z,95548.30
2018-09-11T08:26:36.375Z,95554.83
2018-09-11T08:29:05.321Z,95550.14
2018-09-11T08:31:34.165Z,95549.14
2018-09-11T08:34:02.998Z,95559.72
2018-09-11T08:36:31.735Z,95549.86
2018-09-11T08:39:00.605Z,95555.09
2018-09-11T08:41:29.419Z,95556.36
2018-09-11T08:43:58.184Z,95554.25
2018-09-11T08:46:26.980Z,95551.86
2018-09-11T08:48:55.841Z,95552.03
2018-09-11T08:51:24.760Z,95545.51
2018-09-11T08:53:53.501Z,95551.88
2018-09-11T08:56:22.348Z,95552.50
2018-09-11T08:58:51.225Z,95547.79
2018-09-11T09:01:20.028Z,95544.13
2018-09-11T09:03:48.748Z,95551.86
2018-09-11T09:06:17.475Z,95543.66
2018-09-11T09:08:46.259Z,95537.12
2018-09-11T09:11:15.082Z,95537.12
2018-09-11T09:13:43.887Z,95534.64
2018-09-11T09:16:12.631Z,95537.09
2018-09-11T09:18:41.389Z,95522.31
2018-09-11T09:21:10.337Z,95525.03
2018-09-11T09:23:39.053Z,95519.16
2018-09-11T09:26:07.810Z,95513.06
2018-09-11T09:28:36.587Z,95516.09
2018-09-11T09:31:05.755Z,95518.20
2018-09-11T09:33:34.644Z,95512.08
2018-09-11T09:36:03.402Z,95506.14
2018-09-11T09:38:32.134Z,95504.84
2018-09-11T09:41:00.939Z,95509.36
2018-09-11T09:43:29.731Z,95499.48
2018-09-11T09:45:58.538Z,95503.17
2018-09-11T09:48:27.274Z,95495.20
2018-09-11T09:50:56.278Z,95497.32
2018-09-11T09:53:25.118Z,95502.33
2018-09-11T09:55:53.917Z,95492.75
2018-09-11T09:58:22.706Z,95494.71
2018-09-11T10:01:01.639Z,95493.16
2018-09-11T10:03:30.883Z,95493.72
2018-09-11T10:05:59.623Z,95497.96
2018-09-11T10:08:28.393Z,95488.03
2018-09-11T10:10:57.180Z,95499.17
2018-09-11T10:13:25.947Z,95496.05
2018-09-11T10:15:54.842Z,95490.69
2018-09-11T10:18:23.659Z,95496.98
2018-09-11T10:20:52.407Z,95496.63
2018-09-11T10:23:21.226Z,95493.73
2018-09-11T10:25:49.999Z,95489.16
2018-09-11T10:28:18.813Z,95483.78
2018-09-11T10:30:47.790Z,95490.97
2018-09-11T10:33:16.511Z,95496.75
2018-09-11T10:35:45.261Z,95501.84
2018-09-11T10:38:14.028Z,95493.55
2018-09-11T10:40:42.810Z,95498.20
2018-09-11T10:43:11.612Z,95493.16
2018-09-11T10:45:40.359Z,95490.84
2018-09-11T10:48:09.774Z,95485.84
2018-09-11T10:50:38.531Z,95476.80
2018-09-11T10:53:07.450Z,95486.16
2018-09-11T10:55:36.283Z,95475.78
2018-09-11T10:58:05.277Z,95470.95
2018-09-11T11:00:34.188Z,95464.46
2018-09-11T11:03:03.573Z,95473.71
2018-09-11T11:05:32.644Z,95477.19
2018-09-11T11:08:01.714Z,95481.22
2018-09-11T11:10:30.892Z,95469.02
2018-09-11T11:12:59.672Z,95469.55
2018-09-11T11:15:28.457Z,95467.98
2018-09-11T11:17:57.159Z,95462.67
2018-09-11T11:20:25.926Z,95466.13
2018-09-11T11:22:54.752Z,95464.56
2018-09-11T11:25:23.565Z,95462.97
2018-09-11T11:27:52.372Z,95466.77
2018-09-11T11:30:21.202Z,95467.30
2018-09-11T11:32:49.984Z,95457.62
2018-09-11T11:35:18.711Z,95459.27
2018-09-11T11:37:47.460Z,95460.86
2018-09-11T11:40:16.229Z,95463.28
2018-09-11T11:42:45.043Z,95475.33
2018-09-11T11:45:14.144Z,95460.86
2018-09-11T11:47:43.093Z,95458.13
2018-09-11T11:50:11.900Z,95470.99
2018-09-11T11:52:40.756Z,95461.31
2018-09-11T11:55:09.627Z,95456.83
2018-09-11T11:57:38.742Z,95450.49
2018-09-11T12:00:07.732Z,95451.52
2018-09-11T12:02:36.505Z,95451.30
2018-09-11T12:05:05.448Z,95447.01
2018-09-11T12:07:34.264Z,95439.81
2018-09-11T12:10:03.063Z,95445.19
2018-09-11T12:12:31.884Z,95433.41
2018-09-11T12:15:00.812Z,95448.41
2018-09-11T12:17:29.570Z,95439.56
2018-09-11T12:19:58.380Z,95435.05
2018-09-11T12:22:27.349Z,95423.50
2018-09-11T12:24:56.162Z,95429.92
2018-09-11T12:27:25.104Z,95411.45
2018-09-11T12:29:54.053Z,95416.56
2018-09-11T12:32:22.839Z,95432.88
2018-09-11T12:34:51.598Z,95421.88
2018-09-11T12:37:20.382Z,95425.37
2018-09-11T12:39:49.129Z,95418.39
2018-09-11T12:42:17.890Z,95412.79
2018-09-11T12:44:46.722Z,95414.13
2018-09-11T12:47:15.649Z,95414.13
2018-09-11T12:49:44.500Z,95413.50
2018-09-11T12:52:13.271Z,95402.99
2018-09-11T12:54:42.281Z,95403.76
2018-09-11T12:57:11.036Z,95402.38
2018-09-11T12:59:39.928Z,95393.26
2018-09-11T13:02:08.738Z,95395.75
2018-09-11T13:04:37.691Z,95402.53
2018-09-11T13:07:06.410Z,95402.04
2018-09-11T13:09:35.358Z,95400.97
2018-09-11T13:12:04.289Z,95409.80
2018-09-11T13:14:33.203Z,95396.68
2018-09-11T13:17:02.097Z,95396.16
2018-09-11T13:19:30.868Z,95399.13
2018-09-11T13:21:59.775Z,95399.09
2018-09-11T13:24:28.593Z,95403.69
2018-09-11T13:26:57.496Z,95405.55
2018-09-11T13:29:26.284Z,95399.40
2018-09-11T13:31:55.046Z,95403.94
2018-09-11T13:34:23.798Z,95401.81
2018-09-11T13:36:52.588Z,95400.45
2018-09-11T13:39:21.359Z,95400.73
2018-09-11T13:41:50.152Z,95398.84
2018-09-11T13:44:18.963Z,95401.53
2018-09-11T13:46:47.781Z,95400.20
2018-09-11T13:49:16.596Z,95399.92
2018-09-11T13:51:45.628Z,95393.78
2018-09-11T13:54:14.341Z,95402.34
2018-09-11T13:56:43.121Z,95397.78
2018-09-11T13:59:11.911Z,95392.70
2018-09-11T14:01:40.778Z,95397.79
2018-09-11T14:04:09.640Z,95397.79
2018-09-11T14:06:38.465Z,95398.05
2018-09-11T14:09:10.158Z,95398.86
2018-09-11T14:11:38.946Z,95394.56
2018-09-11T14:14:07.707Z,95394.56
2018-09-11T14:16:36.550Z,95391.36
2018-09-11T14:19:05.397Z,95393.78
2018-09-11T14:21:40.710Z,95399.67
2018-09-11T14:24:09.470Z,95389.75
2018-09-11T14:26:38.298Z,95395.09
2018-09-11T14:29:07.246Z,95410.92
2018-09-11T14:31:36.070Z,95414.39
2018-09-11T14:34:04.869Z,95411.95
2018-09-11T14:36:33.637Z,95413.01
2018-09-11T14:39:02.755Z,95408.41
2018-09-11T14:41:31.482Z,95410.81
2018-09-11T14:44:00.266Z,95406.00
2018-09-11T14:46:29.053Z,95408.09
2018-09-11T14:48:57.806Z,95396.31
2018-09-11T14:51:26.549Z,95392.03
2018-09-11T14:53:55.343Z,95397.37
2018-09-11T14:56:24.121Z,95393.88
2018-09-11T14:58:52.888Z,95393.07
2018-09-11T15:01:21.658Z,95408.55
2018-09-11T15:03:50.502Z,95410.67
2018-09-11T15:06:19.312Z,95413.03
2018-09-11T15:08:48.098Z,95401.77
2018-09-11T15:11:16.910Z,95415.63
2018-09-11T15:13:45.751Z,95409.71
2018-09-11T15:16:14.523Z,95416.62
2018-09-11T15:18:43.317Z,95415.83
2018-09-11T15:21:12.062Z,95422.75
2018-09-11T15:23:40.911Z,95417.12
2018-09-11T15:26:09.702Z,95423.25
2018-09-11T15:28:38.490Z,95414.17
2018-09-11T15:31:07.324Z,95416.61
2018-09-11T15:33:36.077Z,95423.31
2018-09-11T15:36:04.982Z,95424.12
2018-09-11T15:38:33.850Z,95424.08
2018-09-11T15:41:02.598Z,95436.62
2018-09-11T15:43:31.429Z,95435.77
2018-09-11T15:46:00.217Z,95434.13
2018-09-11T15:48:29.016Z,95423.67
2018-09-11T15:50:57.862Z,95423.34
2018-09-11T15:53:26.602Z,95433.20
2018-09-11T15:55:55.569Z,95424.89
2018-09-11T15:58:24.393Z,95424.33
2018-09-11T16:00:53.424Z,95428.31
2018-09-11T16:03:22.411Z,95425.61
2018-09-11T16:05:51.194Z,95426.92
2018-09-11T16:08:20.007Z,95423.41
2018-09-11T16:10:48.999Z,95418.35
2018-09-11T16:13:17.829Z,95417.45
2018-09-11T16:15:46.614Z,95417.15
2018-09-11T16:18:15.427Z,95413.89
2018-09-11T16:20:44.220Z,95418.92
2018-09-11T16:23:13.130Z,95420.97
2018-09-11T16:25:41.948Z,95415.63
2018-09-11T16:28:10.785Z,95420.47
2018-09-11T16:30:39.582Z,95428.77
2018-09-11T16:33:08.334Z,95424.48
2018-09-11T16:35:37.148Z,95420.41
2018-09-11T16:38:06.025Z,95424.06
2018-09-11T16:40:34.823Z,95423.75
2018-09-11T16:43:03.798Z,95428.73
2018-09-11T16:45:32.598Z,95428.55
2018-09-11T16:48:01.346Z,95436.51
2018-09-11T16:50:30.119Z,95439.91
2018-09-11T16:52:58.944Z,95445.73
2018-09-11T16:55:27.731Z,95440.92
2018-09-11T16:57:56.578Z,95445.20
2018-09-11T17:00:25.339Z,95452.83
2018-09-11T17:02:54.110Z,95454.41
2018-09-11T17:05:22.906Z,95449.36
2018-09-11T17:07:51.655Z,95456.69
2018-09-11T17:10:20.489Z,95457.69
2018-09-11T17:12:49.282Z,95457.13
2018-09-11T17:15:18.077Z,95456.31
2018-09-11T17:17:46.906Z,95455.98
2018-09-11T17:20:15.872Z,95461.32
2018-09-11T17:22:44.969Z,95466.13
2018-09-11T17:25:13.816Z,95472.72
2018-09-11T17:27:42.623Z,95475.37
2018-09-11T17:30:11.981Z,95473.14
2018-09-11T17:32:40.837Z,95474.38
2018-09-11T17:35:09.638Z,95480.19
2018-09-11T17:37:38.392Z,95481.19
2018-09-11T17:40:07.198Z,95487.84
2018-09-11T17:42:36.039Z,95489.80
2018-09-11T17:45:05.046Z,95491.59
2018-09-11T17:47:33.827Z,95496.58
2018-09-11T17:50:02.615Z,95503.60
2018-09-11T17:52:31.406Z,95511.35
2018-09-11T17:55:00.167Z,95508.84
2018-09-11T17:57:29.075Z,95508.38
2018-09-11T17:59:57.868Z,95505.83
2018-09-11T18:02:26.693Z,95512.95
2018-09-11T18:04:55.465Z,95521.47
2018-09-11T18:07:24.267Z,95524.02
2018-09-11T18:09:53.018Z,95526.80
2018-09-11T18:12:21.799Z,95523.27
2018-09-11T18:14:50.609Z,95525.64
2018-09-11T18:17:19.380Z,95522.91
2018-09-11T18:19:48.175Z,95529.72
2018-09-11T18:22:16.966Z,95522.65
2018-09-11T18:24:45.835Z,95530.58
2018-09-11T18:27:14.883Z,95527.78
2018-09-11T18:29:43.667Z,95524.03
2018-09-11T18:32:12.669Z,95526.30
2018-09-11T18:34:41.459Z,95532.01
2018-09-11T18:37:10.355Z,95533.05
2018-09-11T18:39:39.294Z,95535.19
2018-09-11T18:42:08.083Z,95535.08
2018-09-11T18:44:36.931Z,95533.94
2018-09-11T18:47:06.100Z,95537.91
2018-09-11T18:49:34.834Z,95537.74
2018-09-11T18:52:03.697Z,95538.72
2018-09-11T18:54:32.512Z,95540.75
2018-09-11T18:57:01.413Z,95538.31
2018-09-11T18:59:30.201Z,95543.34
2018-09-11T19:01:59.353Z,95548.13
2018-09-11T19:04:28.173Z,95541.09
2018-09-11T19:06:56.912Z,95539.36
2018-09-11T19:09:25.711Z,95543.06
2018-09-11T19:11:54.632Z,95541.36
2018-09-11T19:14:23.436Z,95543.79
2018-09-11T19:16:52.208Z,95547.72
2018-09-11T19:19:21.062Z,95549.92
2018-09-11T19:21:49.970Z,95551.54
2018-09-11T19:24:18.741Z,95546.02
2018-09-11T19:26:47.587Z,95540.89
2018-09-11T19:29:16.532Z,95546.33
2018-09-11T19:31:45.298Z,95546.02
2018-09-11T19:34:14.218Z,95542.20
2018-09-11T19:36:43.375Z,95545.16
2018-09-11T19:39:12.198Z,95541.27
2018-09-11T19:41:40.959Z,95543.36
2018-09-11T19:44:09.736Z,95542.72
2018-09-11T19:46:38.918Z,95544.45
2018-09-11T19:49:07.687Z,95543.30
2018-09-11T19:51:36.448Z,95543.15
2018-09-11T19:54:05.317Z,95539.98
2018-09-11T19:56:34.708Z,95546.48
2018-09-11T19:59:03.492Z,95545.80
2018-09-11T20:01:32.287Z,95543.89
2018-09-11T20:04:01.196Z,95548.89
2018-09-11T20:06:30.028Z,95545.97
2018-09-11T20:08:58.753Z,95546.68
2018-09-11T20:11:27.514Z,95543.89
2018-09-11T20:13:56.309Z,95550.16
2018-09-11T20:16:25.068Z,95555.08
2018-09-11T20:18:53.897Z,95550.67
2018-09-11T20:21:22.694Z,95560.33
2018-09-11T20:23:51.489Z,95558.80
2018-09-11T20:26:20.381Z,95556.05
2018-09-11T20:28:49.155Z,95558.00
2018-09-11T20:31:18.117Z,95550.51
2018-09-11T20:33:47.010Z,95553.81
2018-09-11T20:36:16.029Z,95548.27
2018-09-11T20:38:44.934Z,95555.02
2018-09-11T20:41:13.685Z,95558.64
2018-09-11T20:43:42.503Z,95556.76
2018-09-11T20:46:11.263Z,95556.92
2018-09-11T20:48:39.987Z,95561.01
2018-09-11T20:51:08.827Z,95558.19
2018-09-11T20:53:37.591Z,95559.16
2018-09-11T20:56:06.439Z,95550.16
2018-09-11T20:58:35.353Z,95551.77
2018-09-11T21:01:04.157Z,95556.05
2018-09-11T21:03:32.913Z,95560.03
2018-09-11T21:06:01.730Z,95562.98
2018-09-11T21:08:30.490Z,95564.83
2018-09-11T21:10:59.325Z,95561.95
2018-09-11T21:13:28.367Z,95563.31
2018-09-11T21:15:57.143Z,95563.44
2018-09-11T21:18:25.999Z,95558.64
2018-09-11T21:20:54.788Z,95561.19
2018-09-11T21:23:23.544Z,95557.27
2018-09-11T21:25:52.334Z,95568.64
2018-09-11T21:28:21.142Z,95568.52
2018-09-11T21:30:50.107Z,95570.41
2018-09-11T21:33:18.856Z,95566.13
2018-09-11T21:35:47.568Z,95572.70
2018-09-11T21:38:16.343Z,95572.34
2018-09-11T21:40:45.094Z,95575.46
2018-09-11T21:43:13.895Z,95581.75
2018-09-11T21:45:42.730Z,95579.05
2018-09-11T21:48:11.493Z,95585.03
2018-09-11T21:50:40.337Z,95586.50
2018-09-11T21:53:09.106Z,95581.86
2018-09-11T21:55:37.903Z,95590.75
2018-09-11T21:58:06.671Z,95588.87
2018-09-11T22:00:38.457Z,95587.13
2018-09-11T22:03:07.223Z,95587.25
2018-09-11T22:05:36.055Z,95594.03
2018-09-11T22:08:04.933Z,95588.83
2018-09-11T22:10:33.663Z,95592.32
2018-09-11T22:13:02.451Z,95595.72
2018-09-11T22:15:31.187Z,95592.19
2018-09-11T22:18:00.069Z,95592.25
2018-09-11T22:20:28.852Z,95591.08
2018-09-11T22:22:57.562Z,95594.03
2018-09-11T22:25:26.356Z,95597.42
2018-09-11T22:27:55.121Z,95593.22
2018-09-11T22:30:23.914Z,95594.55
2018-09-11T22:32:52.688Z,95592.62
2018-09-11T22:35:21.462Z,95591.12
2018-09-11T22:37:50.203Z,95594.39
2018-09-11T22:40:19.221Z,95594.72
2018-09-11T22:42:47.952Z,95590.59
2018-09-11T22:45:16.736Z,95590.77
2018-09-11T22:47:45.545Z,95587.81
2018-09-11T22:50:14.334Z,95587.15
2018-09-11T22:52:43.055Z,95588.99
2018-09-11T22:55:11.817Z,95593.88
2018-09-11T22:57:40.592Z,95589.55
2018-09-11T23:00:09.485Z,95591.09
2018-09-11T23:02:38.324Z,95586.84
2018-09-11T23:05:07.170Z,95584.11
2018-09-11T23:07:35.908Z,95579.16
2018-09-11T23:10:04.852Z,95581.00
2018-09-11T23:12:33.622Z,95583.95
2018-09-11T23:15:02.425Z,95584.76
2018-09-11T23:17:31.179Z,95590.58
2018-09-11T23:20:00.027Z,95587.28
2018-09-11T23:22:28.810Z,95585.95
2018-09-11T23:24:57.684Z,95582.85
2018-09-11T23:27:26.691Z,95586.09
2018-09-11T23:29:55.473Z,95576.22
2018-09-11T23:32:24.504Z,95577.72
2018-09-11T23:34:53.277Z,95586.56
2018-09-11T23:37:22.028Z,95590.08
2018-09-11T23:39:50.812Z,95588.70
2018-09-11T23:42:19.723Z,95588.16
2018-09-11T23:44:48.456Z,95587.81
2018-09-11T23:47:17.209Z,95581.02
2018-09-11T23:49:45.989Z,95585.45
2018-09-11T23:52:14.736Z,95589.99
2018-09-11T23:54:43.507Z,95585.97
2018-09-11T23:57:12.352Z,95585.37
2018-09-11T23:59:41.154Z,95578.75
